<?xml version="1.0" encoding="UTF-8" standalone="no" ?>
<gpx xmlns="http://www.topografix.com/GPX/1/1" xmlns:xsi="http://www.w3.org/2001/XMLSchema-instance" xsi:schemaLocation="http://www.topografix.com/GPX/1/1 http://www.topografix.com/GPX/1/1/gpx.xsd" version="1.1" creator="VisuGPX - https://www.visugpx.com">
  <metadata>
    <name>2024-11-28-46-trespoux</name>
    <desc><![CDATA[Randonnée de 10 km pour environ 250m de dénivelé positif. Le circuit commence par un long descente vers la combe de Flottes sur un joli chemin en sous bois mais assez caillouteux : les pieds glissent. La remontée vers le plateau de Trespoux est tranquille et douce, sauf au moment de rejoindre la route des Savarines avec un petit à pic. C'est le moment pour observer vignes et paysages qui s'étendent à l'horizon]]></desc>
  </metadata>
  <trk>
    <name><![CDATA[les savarines-20309520]]></name>
    <trkseg>
      <trkpt lat="44.41482" lon="1.37171">
        <ele>341</ele>
        <time>2024-11-25T16:30:46Z</time>
      </trkpt>
      <trkpt lat="44.41488" lon="1.37167">
        <ele>341</ele>
        <time>2024-11-25T16:30:51Z</time>
      </trkpt>
      <trkpt lat="44.41498" lon="1.37159">
        <ele>340</ele>
        <time>2024-11-25T16:31:01Z</time>
      </trkpt>
      <trkpt lat="44.41502" lon="1.37148">
        <ele>340</ele>
        <time>2024-11-25T16:31:08Z</time>
      </trkpt>
      <trkpt lat="44.41497" lon="1.37138">
        <ele>339</ele>
        <time>2024-11-25T16:31:15Z</time>
      </trkpt>
      <trkpt lat="44.4149" lon="1.37129">
        <ele>339</ele>
        <time>2024-11-25T16:31:22Z</time>
      </trkpt>
      <trkpt lat="44.41479" lon="1.37117">
        <ele>338</ele>
        <time>2024-11-25T16:31:33Z</time>
      </trkpt>
      <trkpt lat="44.4146" lon="1.37094">
        <ele>337</ele>
        <time>2024-11-25T16:31:53Z</time>
      </trkpt>
      <trkpt lat="44.41462" lon="1.37082">
        <ele>336</ele>
        <time>2024-11-25T16:32:01Z</time>
      </trkpt>
      <trkpt lat="44.41462" lon="1.37079">
        <ele>336</ele>
        <time>2024-11-25T16:32:02Z</time>
      </trkpt>
      <trkpt lat="44.41462" lon="1.37074">
        <ele>336</ele>
        <time>2024-11-25T16:32:05Z</time>
      </trkpt>
      <trkpt lat="44.41482" lon="1.3704">
        <ele>334</ele>
        <time>2024-11-25T16:32:30Z</time>
      </trkpt>
      <trkpt lat="44.41483" lon="1.37034">
        <ele>334</ele>
        <time>2024-11-25T16:32:34Z</time>
      </trkpt>
      <trkpt lat="44.41489" lon="1.37025">
        <ele>333</ele>
        <time>2024-11-25T16:32:41Z</time>
      </trkpt>
      <trkpt lat="44.41494" lon="1.37024">
        <ele>333</ele>
        <time>2024-11-25T16:32:45Z</time>
      </trkpt>
      <trkpt lat="44.415" lon="1.37031">
        <ele>333</ele>
        <time>2024-11-25T16:32:51Z</time>
      </trkpt>
      <trkpt lat="44.41624" lon="1.37176">
        <ele>323</ele>
        <time>2024-11-25T16:35:01Z</time>
      </trkpt>
      <trkpt lat="44.4163" lon="1.37166">
        <ele>323</ele>
        <time>2024-11-25T16:35:08Z</time>
      </trkpt>
      <trkpt lat="44.41679" lon="1.37089">
        <ele>321</ele>
        <time>2024-11-25T16:36:07Z</time>
      </trkpt>
      <trkpt lat="44.4176" lon="1.36946">
        <ele>316</ele>
        <time>2024-11-25T16:37:51Z</time>
      </trkpt>
      <trkpt lat="44.41805" lon="1.36878">
        <ele>311</ele>
        <time>2024-11-25T16:38:44Z</time>
      </trkpt>
      <trkpt lat="44.41821" lon="1.36848">
        <ele>310</ele>
        <time>2024-11-25T16:39:06Z</time>
      </trkpt>
      <trkpt lat="44.41844" lon="1.36819">
        <ele>308</ele>
        <time>2024-11-25T16:39:31Z</time>
      </trkpt>
      <trkpt lat="44.41881" lon="1.36785">
        <ele>305</ele>
        <time>2024-11-25T16:40:06Z</time>
      </trkpt>
      <trkpt lat="44.419" lon="1.36772">
        <ele>304</ele>
        <time>2024-11-25T16:40:23Z</time>
      </trkpt>
      <trkpt lat="44.41904" lon="1.36769">
        <ele>304</ele>
        <time>2024-11-25T16:40:27Z</time>
      </trkpt>
      <trkpt lat="44.41902" lon="1.36762">
        <ele>305</ele>
        <time>2024-11-25T16:40:31Z</time>
      </trkpt>
      <trkpt lat="44.41847" lon="1.36706">
        <ele>302</ele>
        <time>2024-11-25T16:41:25Z</time>
      </trkpt>
      <trkpt lat="44.41841" lon="1.36702">
        <ele>301</ele>
        <time>2024-11-25T16:41:31Z</time>
      </trkpt>
      <trkpt lat="44.41835" lon="1.36702">
        <ele>300</ele>
        <time>2024-11-25T16:41:35Z</time>
      </trkpt>
      <trkpt lat="44.4179" lon="1.36716">
        <ele>302</ele>
        <time>2024-11-25T16:42:12Z</time>
      </trkpt>
      <trkpt lat="44.41782" lon="1.36718">
        <ele>302</ele>
        <time>2024-11-25T16:42:19Z</time>
      </trkpt>
      <trkpt lat="44.41771" lon="1.36714">
        <ele>302</ele>
        <time>2024-11-25T16:42:28Z</time>
      </trkpt>
      <trkpt lat="44.41767" lon="1.36705">
        <ele>302</ele>
        <time>2024-11-25T16:42:34Z</time>
      </trkpt>
      <trkpt lat="44.41765" lon="1.36695">
        <ele>301</ele>
        <time>2024-11-25T16:42:40Z</time>
      </trkpt>
      <trkpt lat="44.41768" lon="1.36682">
        <ele>300</ele>
        <time>2024-11-25T16:42:48Z</time>
      </trkpt>
      <trkpt lat="44.41774" lon="1.36672">
        <ele>299</ele>
        <time>2024-11-25T16:42:55Z</time>
      </trkpt>
      <trkpt lat="44.41787" lon="1.36663">
        <ele>298</ele>
        <time>2024-11-25T16:43:07Z</time>
      </trkpt>
      <trkpt lat="44.41796" lon="1.36653">
        <ele>297</ele>
        <time>2024-11-25T16:43:16Z</time>
      </trkpt>
      <trkpt lat="44.41807" lon="1.36638">
        <ele>295</ele>
        <time>2024-11-25T16:43:28Z</time>
      </trkpt>
      <trkpt lat="44.41817" lon="1.36619">
        <ele>293</ele>
        <time>2024-11-25T16:43:42Z</time>
      </trkpt>
      <trkpt lat="44.41828" lon="1.36585">
        <ele>290</ele>
        <time>2024-11-25T16:44:03Z</time>
      </trkpt>
      <trkpt lat="44.41831" lon="1.36567">
        <ele>288</ele>
        <time>2024-11-25T16:44:14Z</time>
      </trkpt>
      <trkpt lat="44.41834" lon="1.36526">
        <ele>284</ele>
        <time>2024-11-25T16:44:37Z</time>
      </trkpt>
      <trkpt lat="44.41834" lon="1.36506">
        <ele>282</ele>
        <time>2024-11-25T16:44:49Z</time>
      </trkpt>
      <trkpt lat="44.41836" lon="1.3649">
        <ele>281</ele>
        <time>2024-11-25T16:44:58Z</time>
      </trkpt>
      <trkpt lat="44.41841" lon="1.36474">
        <ele>281</ele>
        <time>2024-11-25T16:45:08Z</time>
      </trkpt>
      <trkpt lat="44.41872" lon="1.36407">
        <ele>279</ele>
        <time>2024-11-25T16:45:54Z</time>
      </trkpt>
      <trkpt lat="44.41883" lon="1.36377">
        <ele>278</ele>
        <time>2024-11-25T16:46:13Z</time>
      </trkpt>
      <trkpt lat="44.41875" lon="1.3633">
        <ele>276</ele>
        <time>2024-11-25T16:46:41Z</time>
      </trkpt>
      <trkpt lat="44.41886" lon="1.36332">
        <ele>275</ele>
        <time>2024-11-25T16:46:49Z</time>
      </trkpt>
      <trkpt lat="44.41898" lon="1.36333">
        <ele>275</ele>
        <time>2024-11-25T16:46:59Z</time>
      </trkpt>
      <trkpt lat="44.41911" lon="1.36303">
        <ele>276</ele>
        <time>2024-11-25T16:47:19Z</time>
      </trkpt>
      <trkpt lat="44.41921" lon="1.36285">
        <ele>277</ele>
        <time>2024-11-25T16:47:32Z</time>
      </trkpt>
      <trkpt lat="44.41931" lon="1.36277">
        <ele>276</ele>
        <time>2024-11-25T16:47:41Z</time>
      </trkpt>
      <trkpt lat="44.41959" lon="1.36253">
        <ele>274</ele>
        <time>2024-11-25T16:48:08Z</time>
      </trkpt>
      <trkpt lat="44.41975" lon="1.36246">
        <ele>273</ele>
        <time>2024-11-25T16:48:21Z</time>
      </trkpt>
      <trkpt lat="44.42009" lon="1.36241">
        <ele>270</ele>
        <time>2024-11-25T16:48:49Z</time>
      </trkpt>
      <trkpt lat="44.42057" lon="1.36231">
        <ele>269</ele>
        <time>2024-11-25T16:49:27Z</time>
      </trkpt>
      <trkpt lat="44.4208" lon="1.3623">
        <ele>268</ele>
        <time>2024-11-25T16:49:46Z</time>
      </trkpt>
      <trkpt lat="44.42125" lon="1.36234">
        <ele>264</ele>
        <time>2024-11-25T16:50:22Z</time>
      </trkpt>
      <trkpt lat="44.42142" lon="1.36226">
        <ele>264</ele>
        <time>2024-11-25T16:50:36Z</time>
      </trkpt>
      <trkpt lat="44.42189" lon="1.36226">
        <ele>261</ele>
        <time>2024-11-25T16:51:14Z</time>
      </trkpt>
      <trkpt lat="44.42213" lon="1.36222">
        <ele>262</ele>
        <time>2024-11-25T16:51:33Z</time>
      </trkpt>
      <trkpt lat="44.4225" lon="1.36224">
        <ele>261</ele>
        <time>2024-11-25T16:52:03Z</time>
      </trkpt>
      <trkpt lat="44.42273" lon="1.36229">
        <ele>260</ele>
        <time>2024-11-25T16:52:22Z</time>
      </trkpt>
      <trkpt lat="44.42293" lon="1.3624">
        <ele>258</ele>
        <time>2024-11-25T16:52:39Z</time>
      </trkpt>
      <trkpt lat="44.42312" lon="1.36254">
        <ele>255</ele>
        <time>2024-11-25T16:52:56Z</time>
      </trkpt>
      <trkpt lat="44.42329" lon="1.36273">
        <ele>255</ele>
        <time>2024-11-25T16:53:13Z</time>
      </trkpt>
      <trkpt lat="44.42353" lon="1.36292">
        <ele>254</ele>
        <time>2024-11-25T16:53:35Z</time>
      </trkpt>
      <trkpt lat="44.42371" lon="1.36299">
        <ele>253</ele>
        <time>2024-11-25T16:53:50Z</time>
      </trkpt>
      <trkpt lat="44.42387" lon="1.36299">
        <ele>252</ele>
        <time>2024-11-25T16:54:03Z</time>
      </trkpt>
      <trkpt lat="44.42419" lon="1.3631">
        <ele>249</ele>
        <time>2024-11-25T16:54:30Z</time>
      </trkpt>
      <trkpt lat="44.4245" lon="1.36324">
        <ele>245</ele>
        <time>2024-11-25T16:54:56Z</time>
      </trkpt>
      <trkpt lat="44.42484" lon="1.36341">
        <ele>242</ele>
        <time>2024-11-25T16:55:25Z</time>
      </trkpt>
      <trkpt lat="44.42497" lon="1.36344">
        <ele>241</ele>
        <time>2024-11-25T16:55:35Z</time>
      </trkpt>
      <trkpt lat="44.42509" lon="1.36335">
        <ele>241</ele>
        <time>2024-11-25T16:55:46Z</time>
      </trkpt>
      <trkpt lat="44.42534" lon="1.36289">
        <ele>244</ele>
        <time>2024-11-25T16:56:19Z</time>
      </trkpt>
      <trkpt lat="44.42559" lon="1.3625">
        <ele>241</ele>
        <time>2024-11-25T16:56:49Z</time>
      </trkpt>
      <trkpt lat="44.42581" lon="1.36225">
        <ele>241</ele>
        <time>2024-11-25T16:57:12Z</time>
      </trkpt>
      <trkpt lat="44.42645" lon="1.3618">
        <ele>238</ele>
        <time>2024-11-25T16:58:09Z</time>
      </trkpt>
      <trkpt lat="44.42667" lon="1.36157">
        <ele>235</ele>
        <time>2024-11-25T16:58:31Z</time>
      </trkpt>
      <trkpt lat="44.42707" lon="1.36131">
        <ele>236</ele>
        <time>2024-11-25T16:59:06Z</time>
      </trkpt>
      <trkpt lat="44.4275" lon="1.36106">
        <ele>231</ele>
        <time>2024-11-25T16:59:44Z</time>
      </trkpt>
      <trkpt lat="44.42786" lon="1.36082">
        <ele>229</ele>
        <time>2024-11-25T17:00:16Z</time>
      </trkpt>
      <trkpt lat="44.42823" lon="1.36065">
        <ele>229</ele>
        <time>2024-11-25T17:00:47Z</time>
      </trkpt>
      <trkpt lat="44.42863" lon="1.36051">
        <ele>228</ele>
        <time>2024-11-25T17:01:20Z</time>
      </trkpt>
      <trkpt lat="44.42887" lon="1.36051">
        <ele>227</ele>
        <time>2024-11-25T17:01:39Z</time>
      </trkpt>
      <trkpt lat="44.42906" lon="1.36048">
        <ele>226</ele>
        <time>2024-11-25T17:01:54Z</time>
      </trkpt>
      <trkpt lat="44.42925" lon="1.36038">
        <ele>226</ele>
        <time>2024-11-25T17:02:11Z</time>
      </trkpt>
      <trkpt lat="44.42936" lon="1.36039">
        <ele>227</ele>
        <time>2024-11-25T17:02:19Z</time>
      </trkpt>
      <trkpt lat="44.42946" lon="1.36045">
        <ele>227</ele>
        <time>2024-11-25T17:02:28Z</time>
      </trkpt>
      <trkpt lat="44.42957" lon="1.36061">
        <ele>225</ele>
        <time>2024-11-25T17:02:41Z</time>
      </trkpt>
      <trkpt lat="44.42969" lon="1.36088">
        <ele>220</ele>
        <time>2024-11-25T17:02:59Z</time>
      </trkpt>
      <trkpt lat="44.42987" lon="1.36121">
        <ele>219</ele>
        <time>2024-11-25T17:03:23Z</time>
      </trkpt>
      <trkpt lat="44.43" lon="1.36136">
        <ele>216</ele>
        <time>2024-11-25T17:03:36Z</time>
      </trkpt>
      <trkpt lat="44.43032" lon="1.36156">
        <ele>215</ele>
        <time>2024-11-25T17:04:04Z</time>
      </trkpt>
      <trkpt lat="44.43055" lon="1.36165">
        <ele>213</ele>
        <time>2024-11-25T17:04:23Z</time>
      </trkpt>
      <trkpt lat="44.4311" lon="1.36178">
        <ele>213</ele>
        <time>2024-11-25T17:05:08Z</time>
      </trkpt>
      <trkpt lat="44.43127" lon="1.36189">
        <ele>214</ele>
        <time>2024-11-25T17:05:23Z</time>
      </trkpt>
      <trkpt lat="44.43151" lon="1.36207">
        <ele>212</ele>
        <time>2024-11-25T17:05:45Z</time>
      </trkpt>
      <trkpt lat="44.43168" lon="1.36232">
        <ele>208</ele>
        <time>2024-11-25T17:06:05Z</time>
      </trkpt>
      <trkpt lat="44.43176" lon="1.36241">
        <ele>206</ele>
        <time>2024-11-25T17:06:13Z</time>
      </trkpt>
      <trkpt lat="44.43217" lon="1.3626">
        <ele>205</ele>
        <time>2024-11-25T17:06:47Z</time>
      </trkpt>
      <trkpt lat="44.43236" lon="1.36273">
        <ele>204</ele>
        <time>2024-11-25T17:07:04Z</time>
      </trkpt>
      <trkpt lat="44.43257" lon="1.36292">
        <ele>203</ele>
        <time>2024-11-25T17:07:24Z</time>
      </trkpt>
      <trkpt lat="44.43296" lon="1.36317">
        <ele>200</ele>
        <time>2024-11-25T17:07:59Z</time>
      </trkpt>
      <trkpt lat="44.43305" lon="1.3632">
        <ele>200</ele>
        <time>2024-11-25T17:08:06Z</time>
      </trkpt>
      <trkpt lat="44.43309" lon="1.36321">
        <ele>199</ele>
        <time>2024-11-25T17:08:09Z</time>
      </trkpt>
      <trkpt lat="44.43336" lon="1.36324">
        <ele>198</ele>
        <time>2024-11-25T17:08:31Z</time>
      </trkpt>
      <trkpt lat="44.43372" lon="1.36335">
        <ele>198</ele>
        <time>2024-11-25T17:09:00Z</time>
      </trkpt>
      <trkpt lat="44.43388" lon="1.36343">
        <ele>198</ele>
        <time>2024-11-25T17:09:14Z</time>
      </trkpt>
      <trkpt lat="44.4339" lon="1.36354">
        <ele>198</ele>
        <time>2024-11-25T17:09:21Z</time>
      </trkpt>
      <trkpt lat="44.43383" lon="1.3637">
        <ele>197</ele>
        <time>2024-11-25T17:09:31Z</time>
      </trkpt>
      <trkpt lat="44.43383" lon="1.36383">
        <ele>197</ele>
        <time>2024-11-25T17:09:39Z</time>
      </trkpt>
      <trkpt lat="44.43401" lon="1.36409">
        <ele>194</ele>
        <time>2024-11-25T17:09:59Z</time>
      </trkpt>
      <trkpt lat="44.43421" lon="1.36427">
        <ele>193</ele>
        <time>2024-11-25T17:10:18Z</time>
      </trkpt>
      <trkpt lat="44.43449" lon="1.36447">
        <ele>195</ele>
        <time>2024-11-25T17:10:44Z</time>
      </trkpt>
      <trkpt lat="44.43476" lon="1.36461">
        <ele>196</ele>
        <time>2024-11-25T17:11:07Z</time>
      </trkpt>
      <trkpt lat="44.4351" lon="1.36473">
        <ele>194</ele>
        <time>2024-11-25T17:11:35Z</time>
      </trkpt>
      <trkpt lat="44.43554" lon="1.36484">
        <ele>190</ele>
        <time>2024-11-25T17:12:11Z</time>
      </trkpt>
      <trkpt lat="44.43585" lon="1.36494">
        <ele>185</ele>
        <time>2024-11-25T17:12:36Z</time>
      </trkpt>
      <trkpt lat="44.4362" lon="1.36512">
        <ele>182</ele>
        <time>2024-11-25T17:13:06Z</time>
      </trkpt>
      <trkpt lat="44.43633" lon="1.36521">
        <ele>181</ele>
        <time>2024-11-25T17:13:17Z</time>
      </trkpt>
      <trkpt lat="44.43649" lon="1.36537">
        <ele>179</ele>
        <time>2024-11-25T17:13:33Z</time>
      </trkpt>
      <trkpt lat="44.43662" lon="1.36553">
        <ele>176</ele>
        <time>2024-11-25T17:13:47Z</time>
      </trkpt>
      <trkpt lat="44.43676" lon="1.36517">
        <ele>178</ele>
        <time>2024-11-25T17:14:11Z</time>
      </trkpt>
      <trkpt lat="44.43688" lon="1.36511">
        <ele>178</ele>
        <time>2024-11-25T17:14:21Z</time>
      </trkpt>
      <trkpt lat="44.43696" lon="1.36511">
        <ele>178</ele>
        <time>2024-11-25T17:14:27Z</time>
      </trkpt>
      <trkpt lat="44.43729" lon="1.3654">
        <ele>175</ele>
        <time>2024-11-25T17:14:58Z</time>
      </trkpt>
      <trkpt lat="44.43761" lon="1.36549">
        <ele>174</ele>
        <time>2024-11-25T17:15:24Z</time>
      </trkpt>
      <trkpt lat="44.43783" lon="1.3653">
        <ele>174</ele>
        <time>2024-11-25T17:15:45Z</time>
      </trkpt>
      <trkpt lat="44.438" lon="1.36494">
        <ele>172</ele>
        <time>2024-11-25T17:16:10Z</time>
      </trkpt>
      <trkpt lat="44.4381" lon="1.36433">
        <ele>172</ele>
        <time>2024-11-25T17:16:46Z</time>
      </trkpt>
      <trkpt lat="44.43835" lon="1.36304">
        <ele>168</ele>
        <time>2024-11-25T17:18:02Z</time>
      </trkpt>
      <trkpt lat="44.43848" lon="1.36258">
        <ele>169</ele>
        <time>2024-11-25T17:18:30Z</time>
      </trkpt>
      <trkpt lat="44.43876" lon="1.36187">
        <ele>170</ele>
        <time>2024-11-25T17:19:17Z</time>
      </trkpt>
      <trkpt lat="44.43849" lon="1.36134">
        <ele>177</ele>
        <time>2024-11-25T17:19:54Z</time>
      </trkpt>
      <trkpt lat="44.43835" lon="1.36106">
        <ele>180</ele>
        <time>2024-11-25T17:20:13Z</time>
      </trkpt>
      <trkpt lat="44.43848" lon="1.36119">
        <ele>179</ele>
        <time>2024-11-25T17:20:26Z</time>
      </trkpt>
      <trkpt lat="44.43876" lon="1.36145">
        <ele>175</ele>
        <time>2024-11-25T17:20:53Z</time>
      </trkpt>
      <trkpt lat="44.43895" lon="1.36154">
        <ele>172</ele>
        <time>2024-11-25T17:21:09Z</time>
      </trkpt>
      <trkpt lat="44.43911" lon="1.36161">
        <ele>170</ele>
        <time>2024-11-25T17:21:23Z</time>
      </trkpt>
      <trkpt lat="44.43936" lon="1.36159">
        <ele>169</ele>
        <time>2024-11-25T17:21:43Z</time>
      </trkpt>
      <trkpt lat="44.44008" lon="1.36137">
        <ele>168</ele>
        <time>2024-11-25T17:22:42Z</time>
      </trkpt>
      <trkpt lat="44.44041" lon="1.36118">
        <ele>168</ele>
        <time>2024-11-25T17:23:10Z</time>
      </trkpt>
      <trkpt lat="44.44078" lon="1.36094">
        <ele>166</ele>
        <time>2024-11-25T17:23:43Z</time>
      </trkpt>
      <trkpt lat="44.44104" lon="1.36078">
        <ele>165</ele>
        <time>2024-11-25T17:24:06Z</time>
      </trkpt>
      <trkpt lat="44.44135" lon="1.36066">
        <ele>163</ele>
        <time>2024-11-25T17:24:31Z</time>
      </trkpt>
      <trkpt lat="44.44142" lon="1.36053">
        <ele>163</ele>
        <time>2024-11-25T17:24:41Z</time>
      </trkpt>
      <trkpt lat="44.4415" lon="1.36041">
        <ele>163</ele>
        <time>2024-11-25T17:24:50Z</time>
      </trkpt>
      <trkpt lat="44.44152" lon="1.36038">
        <ele>163</ele>
        <time>2024-11-25T17:24:52Z</time>
      </trkpt>
      <trkpt lat="44.44158" lon="1.3603">
        <ele>163</ele>
        <time>2024-11-25T17:24:59Z</time>
      </trkpt>
      <trkpt lat="44.44154" lon="1.36014">
        <ele>165</ele>
        <time>2024-11-25T17:25:09Z</time>
      </trkpt>
      <trkpt lat="44.4415" lon="1.36001">
        <ele>167</ele>
        <time>2024-11-25T17:25:17Z</time>
      </trkpt>
      <trkpt lat="44.44137" lon="1.35987">
        <ele>171</ele>
        <time>2024-11-25T17:25:30Z</time>
      </trkpt>
      <trkpt lat="44.4412" lon="1.35979">
        <ele>175</ele>
        <time>2024-11-25T17:25:44Z</time>
      </trkpt>
      <trkpt lat="44.44103" lon="1.3598">
        <ele>177</ele>
        <time>2024-11-25T17:25:58Z</time>
      </trkpt>
      <trkpt lat="44.44091" lon="1.35969">
        <ele>180</ele>
        <time>2024-11-25T17:26:09Z</time>
      </trkpt>
      <trkpt lat="44.44082" lon="1.35958">
        <ele>183</ele>
        <time>2024-11-25T17:26:19Z</time>
      </trkpt>
      <trkpt lat="44.44074" lon="1.35955">
        <ele>186</ele>
        <time>2024-11-25T17:26:26Z</time>
      </trkpt>
      <trkpt lat="44.44062" lon="1.35962">
        <ele>188</ele>
        <time>2024-11-25T17:26:36Z</time>
      </trkpt>
      <trkpt lat="44.44056" lon="1.35977">
        <ele>189</ele>
        <time>2024-11-25T17:26:46Z</time>
      </trkpt>
      <trkpt lat="44.44048" lon="1.35979">
        <ele>191</ele>
        <time>2024-11-25T17:26:52Z</time>
      </trkpt>
      <trkpt lat="44.44029" lon="1.35976">
        <ele>197</ele>
        <time>2024-11-25T17:27:08Z</time>
      </trkpt>
      <trkpt lat="44.4402" lon="1.35983">
        <ele>200</ele>
        <time>2024-11-25T17:27:16Z</time>
      </trkpt>
      <trkpt lat="44.44013" lon="1.35985">
        <ele>202</ele>
        <time>2024-11-25T17:27:22Z</time>
      </trkpt>
      <trkpt lat="44.43998" lon="1.35991">
        <ele>206</ele>
        <time>2024-11-25T17:27:34Z</time>
      </trkpt>
      <trkpt lat="44.43989" lon="1.3599">
        <ele>208</ele>
        <time>2024-11-25T17:27:41Z</time>
      </trkpt>
      <trkpt lat="44.43966" lon="1.35995">
        <ele>212</ele>
        <time>2024-11-25T17:28:00Z</time>
      </trkpt>
      <trkpt lat="44.43951" lon="1.35993">
        <ele>215</ele>
        <time>2024-11-25T17:28:12Z</time>
      </trkpt>
      <trkpt lat="44.4394" lon="1.35986">
        <ele>218</ele>
        <time>2024-11-25T17:28:22Z</time>
      </trkpt>
      <trkpt lat="44.43932" lon="1.3597">
        <ele>221</ele>
        <time>2024-11-25T17:28:33Z</time>
      </trkpt>
      <trkpt lat="44.4393" lon="1.35953">
        <ele>224</ele>
        <time>2024-11-25T17:28:43Z</time>
      </trkpt>
      <trkpt lat="44.4392" lon="1.35944">
        <ele>227</ele>
        <time>2024-11-25T17:28:52Z</time>
      </trkpt>
      <trkpt lat="44.4391" lon="1.35947">
        <ele>227</ele>
        <time>2024-11-25T17:29:00Z</time>
      </trkpt>
      <trkpt lat="44.43901" lon="1.35943">
        <ele>226</ele>
        <time>2024-11-25T17:29:08Z</time>
      </trkpt>
      <trkpt lat="44.43887" lon="1.35946">
        <ele>224</ele>
        <time>2024-11-25T17:29:19Z</time>
      </trkpt>
      <trkpt lat="44.4387" lon="1.35933">
        <ele>225</ele>
        <time>2024-11-25T17:29:35Z</time>
      </trkpt>
      <trkpt lat="44.43865" lon="1.35919">
        <ele>228</ele>
        <time>2024-11-25T17:29:44Z</time>
      </trkpt>
      <trkpt lat="44.43858" lon="1.3591">
        <ele>229</ele>
        <time>2024-11-25T17:29:51Z</time>
      </trkpt>
      <trkpt lat="44.43851" lon="1.35906">
        <ele>229</ele>
        <time>2024-11-25T17:29:57Z</time>
      </trkpt>
      <trkpt lat="44.43836" lon="1.35888">
        <ele>230</ele>
        <time>2024-11-25T17:30:13Z</time>
      </trkpt>
      <trkpt lat="44.43809" lon="1.35849">
        <ele>233</ele>
        <time>2024-11-25T17:30:44Z</time>
      </trkpt>
      <trkpt lat="44.43805" lon="1.35834">
        <ele>235</ele>
        <time>2024-11-25T17:30:53Z</time>
      </trkpt>
      <trkpt lat="44.43793" lon="1.3583">
        <ele>235</ele>
        <time>2024-11-25T17:31:03Z</time>
      </trkpt>
      <trkpt lat="44.43728" lon="1.35764">
        <ele>246</ele>
        <time>2024-11-25T17:32:08Z</time>
      </trkpt>
      <trkpt lat="44.43695" lon="1.35757">
        <ele>248</ele>
        <time>2024-11-25T17:32:34Z</time>
      </trkpt>
      <trkpt lat="44.43691" lon="1.35752">
        <ele>250</ele>
        <time>2024-11-25T17:32:39Z</time>
      </trkpt>
      <trkpt lat="44.43682" lon="1.356">
        <ele>261</ele>
        <time>2024-11-25T17:34:06Z</time>
      </trkpt>
      <trkpt lat="44.43678" lon="1.35592">
        <ele>262</ele>
        <time>2024-11-25T17:34:11Z</time>
      </trkpt>
      <trkpt lat="44.4366" lon="1.35587">
        <ele>263</ele>
        <time>2024-11-25T17:34:26Z</time>
      </trkpt>
      <trkpt lat="44.43638" lon="1.356">
        <ele>262</ele>
        <time>2024-11-25T17:34:45Z</time>
      </trkpt>
      <trkpt lat="44.43632" lon="1.35607">
        <ele>262</ele>
        <time>2024-11-25T17:34:52Z</time>
      </trkpt>
      <trkpt lat="44.43629" lon="1.35621">
        <ele>262</ele>
        <time>2024-11-25T17:35:00Z</time>
      </trkpt>
      <trkpt lat="44.43622" lon="1.35626">
        <ele>262</ele>
        <time>2024-11-25T17:35:06Z</time>
      </trkpt>
      <trkpt lat="44.43603" lon="1.35624">
        <ele>262</ele>
        <time>2024-11-25T17:35:21Z</time>
      </trkpt>
      <trkpt lat="44.43597" lon="1.35619">
        <ele>262</ele>
        <time>2024-11-25T17:35:27Z</time>
      </trkpt>
      <trkpt lat="44.43595" lon="1.35601">
        <ele>262</ele>
        <time>2024-11-25T17:35:37Z</time>
      </trkpt>
      <trkpt lat="44.43591" lon="1.35594">
        <ele>262</ele>
        <time>2024-11-25T17:35:43Z</time>
      </trkpt>
      <trkpt lat="44.43589" lon="1.35592">
        <ele>262</ele>
        <time>2024-11-25T17:35:45Z</time>
      </trkpt>
      <trkpt lat="44.43568" lon="1.35599">
        <ele>262</ele>
        <time>2024-11-25T17:36:02Z</time>
      </trkpt>
      <trkpt lat="44.43546" lon="1.35575">
        <ele>262</ele>
        <time>2024-11-25T17:36:24Z</time>
      </trkpt>
      <trkpt lat="44.43535" lon="1.35556">
        <ele>260</ele>
        <time>2024-11-25T17:36:38Z</time>
      </trkpt>
      <trkpt lat="44.43532" lon="1.35558">
        <ele>261</ele>
        <time>2024-11-25T17:36:41Z</time>
      </trkpt>
      <trkpt lat="44.43524" lon="1.35562">
        <ele>261</ele>
        <time>2024-11-25T17:36:48Z</time>
      </trkpt>
      <trkpt lat="44.43507" lon="1.3556">
        <ele>262</ele>
        <time>2024-11-25T17:37:01Z</time>
      </trkpt>
      <trkpt lat="44.43499" lon="1.35573">
        <ele>264</ele>
        <time>2024-11-25T17:37:11Z</time>
      </trkpt>
      <trkpt lat="44.43489" lon="1.3557">
        <ele>264</ele>
        <time>2024-11-25T17:37:19Z</time>
      </trkpt>
      <trkpt lat="44.43473" lon="1.35577">
        <ele>266</ele>
        <time>2024-11-25T17:37:33Z</time>
      </trkpt>
      <trkpt lat="44.4346" lon="1.35583">
        <ele>267</ele>
        <time>2024-11-25T17:37:44Z</time>
      </trkpt>
      <trkpt lat="44.43451" lon="1.35579">
        <ele>268</ele>
        <time>2024-11-25T17:37:51Z</time>
      </trkpt>
      <trkpt lat="44.43447" lon="1.35563">
        <ele>267</ele>
        <time>2024-11-25T17:38:01Z</time>
      </trkpt>
      <trkpt lat="44.43426" lon="1.35547">
        <ele>268</ele>
        <time>2024-11-25T17:38:20Z</time>
      </trkpt>
      <trkpt lat="44.43423" lon="1.35536">
        <ele>268</ele>
        <time>2024-11-25T17:38:27Z</time>
      </trkpt>
      <trkpt lat="44.43429" lon="1.35525">
        <ele>267</ele>
        <time>2024-11-25T17:38:35Z</time>
      </trkpt>
      <trkpt lat="44.43432" lon="1.35508">
        <ele>266</ele>
        <time>2024-11-25T17:38:45Z</time>
      </trkpt>
      <trkpt lat="44.43441" lon="1.35492">
        <ele>263</ele>
        <time>2024-11-25T17:38:56Z</time>
      </trkpt>
      <trkpt lat="44.43439" lon="1.35483">
        <ele>263</ele>
        <time>2024-11-25T17:39:02Z</time>
      </trkpt>
      <trkpt lat="44.43438" lon="1.35472">
        <ele>262</ele>
        <time>2024-11-25T17:39:08Z</time>
      </trkpt>
      <trkpt lat="44.43446" lon="1.35459">
        <ele>259</ele>
        <time>2024-11-25T17:39:18Z</time>
      </trkpt>
      <trkpt lat="44.43449" lon="1.35446">
        <ele>257</ele>
        <time>2024-11-25T17:39:26Z</time>
      </trkpt>
      <trkpt lat="44.43448" lon="1.35421">
        <ele>255</ele>
        <time>2024-11-25T17:39:40Z</time>
      </trkpt>
      <trkpt lat="44.4344" lon="1.35399">
        <ele>255</ele>
        <time>2024-11-25T17:39:54Z</time>
      </trkpt>
      <trkpt lat="44.43439" lon="1.35391">
        <ele>254</ele>
        <time>2024-11-25T17:39:59Z</time>
      </trkpt>
      <trkpt lat="44.43444" lon="1.35372">
        <ele>250</ele>
        <time>2024-11-25T17:40:10Z</time>
      </trkpt>
      <trkpt lat="44.43438" lon="1.35353">
        <ele>250</ele>
        <time>2024-11-25T17:40:22Z</time>
      </trkpt>
      <trkpt lat="44.43426" lon="1.35342">
        <ele>252</ele>
        <time>2024-11-25T17:40:34Z</time>
      </trkpt>
      <trkpt lat="44.43414" lon="1.35338">
        <ele>254</ele>
        <time>2024-11-25T17:40:44Z</time>
      </trkpt>
      <trkpt lat="44.43407" lon="1.35341">
        <ele>254</ele>
        <time>2024-11-25T17:40:49Z</time>
      </trkpt>
      <trkpt lat="44.43397" lon="1.35355">
        <ele>255</ele>
        <time>2024-11-25T17:41:01Z</time>
      </trkpt>
      <trkpt lat="44.43384" lon="1.35361">
        <ele>254</ele>
        <time>2024-11-25T17:41:12Z</time>
      </trkpt>
      <trkpt lat="44.43376" lon="1.35368">
        <ele>255</ele>
        <time>2024-11-25T17:41:19Z</time>
      </trkpt>
      <trkpt lat="44.43359" lon="1.35396">
        <ele>259</ele>
        <time>2024-11-25T17:41:40Z</time>
      </trkpt>
      <trkpt lat="44.43344" lon="1.35407">
        <ele>261</ele>
        <time>2024-11-25T17:41:54Z</time>
      </trkpt>
      <trkpt lat="44.43333" lon="1.35422">
        <ele>264</ele>
        <time>2024-11-25T17:42:06Z</time>
      </trkpt>
      <trkpt lat="44.43327" lon="1.35439">
        <ele>265</ele>
        <time>2024-11-25T17:42:17Z</time>
      </trkpt>
      <trkpt lat="44.43316" lon="1.35443">
        <ele>265</ele>
        <time>2024-11-25T17:42:26Z</time>
      </trkpt>
      <trkpt lat="44.433" lon="1.35459">
        <ele>267</ele>
        <time>2024-11-25T17:42:42Z</time>
      </trkpt>
      <trkpt lat="44.43291" lon="1.35464">
        <ele>267</ele>
        <time>2024-11-25T17:42:50Z</time>
      </trkpt>
      <trkpt lat="44.43267" lon="1.35465">
        <ele>267</ele>
        <time>2024-11-25T17:43:09Z</time>
      </trkpt>
      <trkpt lat="44.43256" lon="1.35458">
        <ele>267</ele>
        <time>2024-11-25T17:43:18Z</time>
      </trkpt>
      <trkpt lat="44.43201" lon="1.35409">
        <ele>263</ele>
        <time>2024-11-25T17:44:11Z</time>
      </trkpt>
      <trkpt lat="44.43193" lon="1.35406">
        <ele>263</ele>
        <time>2024-11-25T17:44:17Z</time>
      </trkpt>
      <trkpt lat="44.43179" lon="1.35406">
        <ele>264</ele>
        <time>2024-11-25T17:44:28Z</time>
      </trkpt>
      <trkpt lat="44.43169" lon="1.35409">
        <ele>266</ele>
        <time>2024-11-25T17:44:37Z</time>
      </trkpt>
      <trkpt lat="44.43159" lon="1.35417">
        <ele>267</ele>
        <time>2024-11-25T17:44:46Z</time>
      </trkpt>
      <trkpt lat="44.43152" lon="1.35418">
        <ele>266</ele>
        <time>2024-11-25T17:44:52Z</time>
      </trkpt>
      <trkpt lat="44.43142" lon="1.35415">
        <ele>263</ele>
        <time>2024-11-25T17:45:00Z</time>
      </trkpt>
      <trkpt lat="44.43134" lon="1.35415">
        <ele>262</ele>
        <time>2024-11-25T17:45:06Z</time>
      </trkpt>
      <trkpt lat="44.43125" lon="1.35427">
        <ele>262</ele>
        <time>2024-11-25T17:45:16Z</time>
      </trkpt>
      <trkpt lat="44.43122" lon="1.35435">
        <ele>262</ele>
        <time>2024-11-25T17:45:21Z</time>
      </trkpt>
      <trkpt lat="44.43119" lon="1.35442">
        <ele>262</ele>
        <time>2024-11-25T17:45:26Z</time>
      </trkpt>
      <trkpt lat="44.43111" lon="1.35469">
        <ele>263</ele>
        <time>2024-11-25T17:45:43Z</time>
      </trkpt>
      <trkpt lat="44.43111" lon="1.35481">
        <ele>265</ele>
        <time>2024-11-25T17:45:49Z</time>
      </trkpt>
      <trkpt lat="44.43106" lon="1.35493">
        <ele>265</ele>
        <time>2024-11-25T17:45:57Z</time>
      </trkpt>
      <trkpt lat="44.43099" lon="1.35497">
        <ele>265</ele>
        <time>2024-11-25T17:46:03Z</time>
      </trkpt>
      <trkpt lat="44.43087" lon="1.35497">
        <ele>263</ele>
        <time>2024-11-25T17:46:13Z</time>
      </trkpt>
      <trkpt lat="44.43073" lon="1.35506">
        <ele>261</ele>
        <time>2024-11-25T17:46:25Z</time>
      </trkpt>
      <trkpt lat="44.43067" lon="1.35506">
        <ele>260</ele>
        <time>2024-11-25T17:46:30Z</time>
      </trkpt>
      <trkpt lat="44.43064" lon="1.35499">
        <ele>260</ele>
        <time>2024-11-25T17:46:35Z</time>
      </trkpt>
      <trkpt lat="44.43057" lon="1.355">
        <ele>259</ele>
        <time>2024-11-25T17:46:41Z</time>
      </trkpt>
      <trkpt lat="44.43049" lon="1.35498">
        <ele>258</ele>
        <time>2024-11-25T17:46:47Z</time>
      </trkpt>
      <trkpt lat="44.43042" lon="1.35504">
        <ele>257</ele>
        <time>2024-11-25T17:46:54Z</time>
      </trkpt>
      <trkpt lat="44.43035" lon="1.35507">
        <ele>256</ele>
        <time>2024-11-25T17:46:59Z</time>
      </trkpt>
      <trkpt lat="44.43023" lon="1.35509">
        <ele>254</ele>
        <time>2024-11-25T17:47:09Z</time>
      </trkpt>
      <trkpt lat="44.43005" lon="1.35521">
        <ele>252</ele>
        <time>2024-11-25T17:47:25Z</time>
      </trkpt>
      <trkpt lat="44.42995" lon="1.35531">
        <ele>252</ele>
        <time>2024-11-25T17:47:35Z</time>
      </trkpt>
      <trkpt lat="44.42994" lon="1.35519">
        <ele>251</ele>
        <time>2024-11-25T17:47:42Z</time>
      </trkpt>
      <trkpt lat="44.42994" lon="1.35512">
        <ele>251</ele>
        <time>2024-11-25T17:47:46Z</time>
      </trkpt>
      <trkpt lat="44.42994" lon="1.35519">
        <ele>251</ele>
        <time>2024-11-25T17:47:50Z</time>
      </trkpt>
      <trkpt lat="44.42995" lon="1.35531">
        <ele>252</ele>
        <time>2024-11-25T17:47:57Z</time>
      </trkpt>
      <trkpt lat="44.42992" lon="1.35535">
        <ele>252</ele>
        <time>2024-11-25T17:48:00Z</time>
      </trkpt>
      <trkpt lat="44.42983" lon="1.35536">
        <ele>251</ele>
        <time>2024-11-25T17:48:07Z</time>
      </trkpt>
      <trkpt lat="44.42954" lon="1.35552">
        <ele>250</ele>
        <time>2024-11-25T17:48:32Z</time>
      </trkpt>
      <trkpt lat="44.42941" lon="1.35562">
        <ele>252</ele>
        <time>2024-11-25T17:48:44Z</time>
      </trkpt>
      <trkpt lat="44.42915" lon="1.3559">
        <ele>256</ele>
        <time>2024-11-25T17:49:10Z</time>
      </trkpt>
      <trkpt lat="44.42871" lon="1.35614">
        <ele>260</ele>
        <time>2024-11-25T17:49:48Z</time>
      </trkpt>
      <trkpt lat="44.42856" lon="1.35615">
        <ele>261</ele>
        <time>2024-11-25T17:50:00Z</time>
      </trkpt>
      <trkpt lat="44.4285" lon="1.35612">
        <ele>261</ele>
        <time>2024-11-25T17:50:05Z</time>
      </trkpt>
      <trkpt lat="44.4284" lon="1.35598">
        <ele>261</ele>
        <time>2024-11-25T17:50:17Z</time>
      </trkpt>
      <trkpt lat="44.42831" lon="1.35593">
        <ele>262</ele>
        <time>2024-11-25T17:50:24Z</time>
      </trkpt>
      <trkpt lat="44.42821" lon="1.35592">
        <ele>262</ele>
        <time>2024-11-25T17:50:32Z</time>
      </trkpt>
      <trkpt lat="44.42813" lon="1.35595">
        <ele>263</ele>
        <time>2024-11-25T17:50:39Z</time>
      </trkpt>
      <trkpt lat="44.42795" lon="1.35607">
        <ele>266</ele>
        <time>2024-11-25T17:50:55Z</time>
      </trkpt>
      <trkpt lat="44.42781" lon="1.35611">
        <ele>267</ele>
        <time>2024-11-25T17:51:06Z</time>
      </trkpt>
      <trkpt lat="44.4277" lon="1.35608">
        <ele>268</ele>
        <time>2024-11-25T17:51:15Z</time>
      </trkpt>
      <trkpt lat="44.42755" lon="1.35612">
        <ele>270</ele>
        <time>2024-11-25T17:51:28Z</time>
      </trkpt>
      <trkpt lat="44.42749" lon="1.35609">
        <ele>270</ele>
        <time>2024-11-25T17:51:33Z</time>
      </trkpt>
      <trkpt lat="44.42742" lon="1.35594">
        <ele>270</ele>
        <time>2024-11-25T17:51:43Z</time>
      </trkpt>
      <trkpt lat="44.42735" lon="1.35591">
        <ele>271</ele>
        <time>2024-11-25T17:51:49Z</time>
      </trkpt>
      <trkpt lat="44.4272" lon="1.3559">
        <ele>273</ele>
        <time>2024-11-25T17:52:01Z</time>
      </trkpt>
      <trkpt lat="44.42715" lon="1.35589">
        <ele>274</ele>
        <time>2024-11-25T17:52:05Z</time>
      </trkpt>
      <trkpt lat="44.42703" lon="1.35586">
        <ele>275</ele>
        <time>2024-11-25T17:52:15Z</time>
      </trkpt>
      <trkpt lat="44.42691" lon="1.35581">
        <ele>276</ele>
        <time>2024-11-25T17:52:25Z</time>
      </trkpt>
      <trkpt lat="44.42666" lon="1.35583">
        <ele>280</ele>
        <time>2024-11-25T17:52:45Z</time>
      </trkpt>
      <trkpt lat="44.42653" lon="1.35591">
        <ele>281</ele>
        <time>2024-11-25T17:52:56Z</time>
      </trkpt>
      <trkpt lat="44.42648" lon="1.3559">
        <ele>281</ele>
        <time>2024-11-25T17:53:00Z</time>
      </trkpt>
      <trkpt lat="44.42638" lon="1.35576">
        <ele>279</ele>
        <time>2024-11-25T17:53:12Z</time>
      </trkpt>
      <trkpt lat="44.42633" lon="1.3556">
        <ele>277</ele>
        <time>2024-11-25T17:53:21Z</time>
      </trkpt>
      <trkpt lat="44.42624" lon="1.35549">
        <ele>275</ele>
        <time>2024-11-25T17:53:31Z</time>
      </trkpt>
      <trkpt lat="44.4261" lon="1.35547">
        <ele>275</ele>
        <time>2024-11-25T17:53:42Z</time>
      </trkpt>
      <trkpt lat="44.426" lon="1.35551">
        <ele>276</ele>
        <time>2024-11-25T17:53:51Z</time>
      </trkpt>
      <trkpt lat="44.42591" lon="1.35548">
        <ele>275</ele>
        <time>2024-11-25T17:53:58Z</time>
      </trkpt>
      <trkpt lat="44.42579" lon="1.3555">
        <ele>276</ele>
        <time>2024-11-25T17:54:08Z</time>
      </trkpt>
      <trkpt lat="44.42568" lon="1.35555">
        <ele>276</ele>
        <time>2024-11-25T17:54:17Z</time>
      </trkpt>
      <trkpt lat="44.42553" lon="1.35576">
        <ele>280</ele>
        <time>2024-11-25T17:54:34Z</time>
      </trkpt>
      <trkpt lat="44.42543" lon="1.35583">
        <ele>281</ele>
        <time>2024-11-25T17:54:43Z</time>
      </trkpt>
      <trkpt lat="44.42529" lon="1.35586">
        <ele>281</ele>
        <time>2024-11-25T17:54:54Z</time>
      </trkpt>
      <trkpt lat="44.42521" lon="1.3559">
        <ele>281</ele>
        <time>2024-11-25T17:55:01Z</time>
      </trkpt>
      <trkpt lat="44.42504" lon="1.35585">
        <ele>280</ele>
        <time>2024-11-25T17:55:15Z</time>
      </trkpt>
      <trkpt lat="44.42492" lon="1.35594">
        <ele>280</ele>
        <time>2024-11-25T17:55:26Z</time>
      </trkpt>
      <trkpt lat="44.42476" lon="1.35614">
        <ele>280</ele>
        <time>2024-11-25T17:55:43Z</time>
      </trkpt>
      <trkpt lat="44.42463" lon="1.35625">
        <ele>280</ele>
        <time>2024-11-25T17:55:55Z</time>
      </trkpt>
      <trkpt lat="44.42448" lon="1.35634">
        <ele>280</ele>
        <time>2024-11-25T17:56:08Z</time>
      </trkpt>
      <trkpt lat="44.42438" lon="1.35634">
        <ele>279</ele>
        <time>2024-11-25T17:56:16Z</time>
      </trkpt>
      <trkpt lat="44.42431" lon="1.35635">
        <ele>279</ele>
        <time>2024-11-25T17:56:22Z</time>
      </trkpt>
      <trkpt lat="44.42418" lon="1.35639">
        <ele>278</ele>
        <time>2024-11-25T17:56:33Z</time>
      </trkpt>
      <trkpt lat="44.42397" lon="1.35658">
        <ele>277</ele>
        <time>2024-11-25T17:56:53Z</time>
      </trkpt>
      <trkpt lat="44.42388" lon="1.3567">
        <ele>277</ele>
        <time>2024-11-25T17:57:03Z</time>
      </trkpt>
      <trkpt lat="44.4238" lon="1.35687">
        <ele>277</ele>
        <time>2024-11-25T17:57:14Z</time>
      </trkpt>
      <trkpt lat="44.42381" lon="1.35699">
        <ele>278</ele>
        <time>2024-11-25T17:57:21Z</time>
      </trkpt>
      <trkpt lat="44.4239" lon="1.35732">
        <ele>283</ele>
        <time>2024-11-25T17:57:41Z</time>
      </trkpt>
      <trkpt lat="44.42387" lon="1.35741">
        <ele>283</ele>
        <time>2024-11-25T17:57:47Z</time>
      </trkpt>
      <trkpt lat="44.42379" lon="1.35744">
        <ele>283</ele>
        <time>2024-11-25T17:57:54Z</time>
      </trkpt>
      <trkpt lat="44.42373" lon="1.3575">
        <ele>283</ele>
        <time>2024-11-25T17:58:00Z</time>
      </trkpt>
      <trkpt lat="44.42367" lon="1.35751">
        <ele>282</ele>
        <time>2024-11-25T17:58:04Z</time>
      </trkpt>
      <trkpt lat="44.42362" lon="1.35757">
        <ele>282</ele>
        <time>2024-11-25T17:58:10Z</time>
      </trkpt>
      <trkpt lat="44.42363" lon="1.35768">
        <ele>283</ele>
        <time>2024-11-25T17:58:16Z</time>
      </trkpt>
      <trkpt lat="44.42334" lon="1.35791">
        <ele>283</ele>
        <time>2024-11-25T17:58:43Z</time>
      </trkpt>
      <trkpt lat="44.42315" lon="1.3582">
        <ele>283</ele>
        <time>2024-11-25T17:59:05Z</time>
      </trkpt>
      <trkpt lat="44.42268" lon="1.35871">
        <ele>283</ele>
        <time>2024-11-25T17:59:53Z</time>
      </trkpt>
      <trkpt lat="44.42259" lon="1.35891">
        <ele>285</ele>
        <time>2024-11-25T18:00:06Z</time>
      </trkpt>
      <trkpt lat="44.42253" lon="1.35892">
        <ele>285</ele>
        <time>2024-11-25T18:00:11Z</time>
      </trkpt>
      <trkpt lat="44.4224" lon="1.35905">
        <ele>286</ele>
        <time>2024-11-25T18:00:24Z</time>
      </trkpt>
      <trkpt lat="44.42225" lon="1.35925">
        <ele>288</ele>
        <time>2024-11-25T18:00:40Z</time>
      </trkpt>
      <trkpt lat="44.42215" lon="1.35935">
        <ele>288</ele>
        <time>2024-11-25T18:00:50Z</time>
      </trkpt>
      <trkpt lat="44.42209" lon="1.35944">
        <ele>289</ele>
        <time>2024-11-25T18:00:57Z</time>
      </trkpt>
      <trkpt lat="44.42198" lon="1.35949">
        <ele>289</ele>
        <time>2024-11-25T18:01:07Z</time>
      </trkpt>
      <trkpt lat="44.42181" lon="1.35965">
        <ele>291</ele>
        <time>2024-11-25T18:01:23Z</time>
      </trkpt>
      <trkpt lat="44.42176" lon="1.35967">
        <ele>292</ele>
        <time>2024-11-25T18:01:27Z</time>
      </trkpt>
      <trkpt lat="44.4217" lon="1.35969">
        <ele>292</ele>
        <time>2024-11-25T18:01:32Z</time>
      </trkpt>
      <trkpt lat="44.42156" lon="1.35967">
        <ele>292</ele>
        <time>2024-11-25T18:01:43Z</time>
      </trkpt>
      <trkpt lat="44.42134" lon="1.35972">
        <ele>295</ele>
        <time>2024-11-25T18:02:01Z</time>
      </trkpt>
      <trkpt lat="44.42116" lon="1.3598">
        <ele>298</ele>
        <time>2024-11-25T18:02:16Z</time>
      </trkpt>
      <trkpt lat="44.42104" lon="1.35982">
        <ele>299</ele>
        <time>2024-11-25T18:02:26Z</time>
      </trkpt>
      <trkpt lat="44.42086" lon="1.35994">
        <ele>302</ele>
        <time>2024-11-25T18:02:42Z</time>
      </trkpt>
      <trkpt lat="44.42064" lon="1.35994">
        <ele>304</ele>
        <time>2024-11-25T18:03:00Z</time>
      </trkpt>
      <trkpt lat="44.42059" lon="1.35989">
        <ele>304</ele>
        <time>2024-11-25T18:03:05Z</time>
      </trkpt>
      <trkpt lat="44.42048" lon="1.35964">
        <ele>303</ele>
        <time>2024-11-25T18:03:21Z</time>
      </trkpt>
      <trkpt lat="44.42036" lon="1.35952">
        <ele>304</ele>
        <time>2024-11-25T18:03:33Z</time>
      </trkpt>
      <trkpt lat="44.42028" lon="1.35938">
        <ele>305</ele>
        <time>2024-11-25T18:03:43Z</time>
      </trkpt>
      <trkpt lat="44.4202" lon="1.35912">
        <ele>305</ele>
        <time>2024-11-25T18:04:00Z</time>
      </trkpt>
      <trkpt lat="44.42019" lon="1.35894">
        <ele>305</ele>
        <time>2024-11-25T18:04:10Z</time>
      </trkpt>
      <trkpt lat="44.42008" lon="1.35869">
        <ele>307</ele>
        <time>2024-11-25T18:04:27Z</time>
      </trkpt>
      <trkpt lat="44.4201" lon="1.3586">
        <ele>307</ele>
        <time>2024-11-25T18:04:32Z</time>
      </trkpt>
      <trkpt lat="44.42015" lon="1.35852">
        <ele>305</ele>
        <time>2024-11-25T18:04:38Z</time>
      </trkpt>
      <trkpt lat="44.42018" lon="1.35841">
        <ele>304</ele>
        <time>2024-11-25T18:04:45Z</time>
      </trkpt>
      <trkpt lat="44.42026" lon="1.35827">
        <ele>301</ele>
        <time>2024-11-25T18:04:55Z</time>
      </trkpt>
      <trkpt lat="44.42035" lon="1.35819">
        <ele>299</ele>
        <time>2024-11-25T18:05:04Z</time>
      </trkpt>
      <trkpt lat="44.42043" lon="1.35802">
        <ele>297</ele>
        <time>2024-11-25T18:05:15Z</time>
      </trkpt>
      <trkpt lat="44.42054" lon="1.35785">
        <ele>295</ele>
        <time>2024-11-25T18:05:28Z</time>
      </trkpt>
      <trkpt lat="44.42064" lon="1.35774">
        <ele>293</ele>
        <time>2024-11-25T18:05:39Z</time>
      </trkpt>
      <trkpt lat="44.42069" lon="1.35767">
        <ele>293</ele>
        <time>2024-11-25T18:05:44Z</time>
      </trkpt>
      <trkpt lat="44.4207" lon="1.3575">
        <ele>293</ele>
        <time>2024-11-25T18:05:54Z</time>
      </trkpt>
      <trkpt lat="44.42069" lon="1.35734">
        <ele>292</ele>
        <time>2024-11-25T18:06:03Z</time>
      </trkpt>
      <trkpt lat="44.42064" lon="1.35728">
        <ele>293</ele>
        <time>2024-11-25T18:06:09Z</time>
      </trkpt>
      <trkpt lat="44.42037" lon="1.35724">
        <ele>297</ele>
        <time>2024-11-25T18:06:30Z</time>
      </trkpt>
      <trkpt lat="44.42027" lon="1.35727">
        <ele>299</ele>
        <time>2024-11-25T18:06:38Z</time>
      </trkpt>
      <trkpt lat="44.42018" lon="1.35736">
        <ele>301</ele>
        <time>2024-11-25T18:06:47Z</time>
      </trkpt>
      <trkpt lat="44.41995" lon="1.35769">
        <ele>307</ele>
        <time>2024-11-25T18:07:14Z</time>
      </trkpt>
      <trkpt lat="44.41939" lon="1.35851">
        <ele>313</ele>
        <time>2024-11-25T18:08:19Z</time>
      </trkpt>
      <trkpt lat="44.41933" lon="1.35856">
        <ele>313</ele>
        <time>2024-11-25T18:08:24Z</time>
      </trkpt>
      <trkpt lat="44.41922" lon="1.35856">
        <ele>314</ele>
        <time>2024-11-25T18:08:33Z</time>
      </trkpt>
      <trkpt lat="44.41917" lon="1.35865">
        <ele>314</ele>
        <time>2024-11-25T18:08:39Z</time>
      </trkpt>
      <trkpt lat="44.41914" lon="1.3589">
        <ele>315</ele>
        <time>2024-11-25T18:08:54Z</time>
      </trkpt>
      <trkpt lat="44.41898" lon="1.35909">
        <ele>315</ele>
        <time>2024-11-25T18:09:11Z</time>
      </trkpt>
      <trkpt lat="44.41866" lon="1.35964">
        <ele>315</ele>
        <time>2024-11-25T18:09:51Z</time>
      </trkpt>
      <trkpt lat="44.41829" lon="1.36003">
        <ele>315</ele>
        <time>2024-11-25T18:10:28Z</time>
      </trkpt>
      <trkpt lat="44.41781" lon="1.36064">
        <ele>312</ele>
        <time>2024-11-25T18:11:20Z</time>
      </trkpt>
      <trkpt lat="44.41733" lon="1.36111">
        <ele>312</ele>
        <time>2024-11-25T18:12:07Z</time>
      </trkpt>
      <trkpt lat="44.41728" lon="1.36119">
        <ele>312</ele>
        <time>2024-11-25T18:12:13Z</time>
      </trkpt>
      <trkpt lat="44.41723" lon="1.36128">
        <ele>312</ele>
        <time>2024-11-25T18:12:20Z</time>
      </trkpt>
      <trkpt lat="44.41684" lon="1.36144">
        <ele>312</ele>
        <time>2024-11-25T18:12:52Z</time>
      </trkpt>
      <trkpt lat="44.41664" lon="1.36156">
        <ele>313</ele>
        <time>2024-11-25T18:13:10Z</time>
      </trkpt>
      <trkpt lat="44.41554" lon="1.36232">
        <ele>316</ele>
        <time>2024-11-25T18:14:48Z</time>
      </trkpt>
      <trkpt lat="44.41525" lon="1.36244">
        <ele>317</ele>
        <time>2024-11-25T18:15:12Z</time>
      </trkpt>
      <trkpt lat="44.41523" lon="1.36245">
        <ele>318</ele>
        <time>2024-11-25T18:15:14Z</time>
      </trkpt>
      <trkpt lat="44.41436" lon="1.36293">
        <ele>322</ele>
        <time>2024-11-25T18:16:29Z</time>
      </trkpt>
      <trkpt lat="44.414" lon="1.36319">
        <ele>324</ele>
        <time>2024-11-25T18:17:01Z</time>
      </trkpt>
      <trkpt lat="44.41376" lon="1.36338">
        <ele>325</ele>
        <time>2024-11-25T18:17:23Z</time>
      </trkpt>
      <trkpt lat="44.41329" lon="1.36387">
        <ele>326</ele>
        <time>2024-11-25T18:18:10Z</time>
      </trkpt>
      <trkpt lat="44.41313" lon="1.36402">
        <ele>326</ele>
        <time>2024-11-25T18:18:26Z</time>
      </trkpt>
      <trkpt lat="44.41305" lon="1.36413">
        <ele>327</ele>
        <time>2024-11-25T18:18:35Z</time>
      </trkpt>
      <trkpt lat="44.41299" lon="1.36422">
        <ele>327</ele>
        <time>2024-11-25T18:18:42Z</time>
      </trkpt>
      <trkpt lat="44.41295" lon="1.36433">
        <ele>327</ele>
        <time>2024-11-25T18:18:49Z</time>
      </trkpt>
      <trkpt lat="44.41295" lon="1.3644">
        <ele>327</ele>
        <time>2024-11-25T18:18:53Z</time>
      </trkpt>
      <trkpt lat="44.41295" lon="1.36445">
        <ele>327</ele>
        <time>2024-11-25T18:18:56Z</time>
      </trkpt>
      <trkpt lat="44.4131" lon="1.36495">
        <ele>327</ele>
        <time>2024-11-25T18:19:27Z</time>
      </trkpt>
      <trkpt lat="44.41322" lon="1.36562">
        <ele>326</ele>
        <time>2024-11-25T18:20:06Z</time>
      </trkpt>
      <trkpt lat="44.41326" lon="1.36586">
        <ele>326</ele>
        <time>2024-11-25T18:20:20Z</time>
      </trkpt>
      <trkpt lat="44.41329" lon="1.36622">
        <ele>326</ele>
        <time>2024-11-25T18:20:41Z</time>
      </trkpt>
      <trkpt lat="44.41327" lon="1.36642">
        <ele>325</ele>
        <time>2024-11-25T18:20:52Z</time>
      </trkpt>
      <trkpt lat="44.41315" lon="1.36701">
        <ele>322</ele>
        <time>2024-11-25T18:21:28Z</time>
      </trkpt>
      <trkpt lat="44.41309" lon="1.36724">
        <ele>320</ele>
        <time>2024-11-25T18:21:42Z</time>
      </trkpt>
      <trkpt lat="44.41299" lon="1.36702">
        <ele>319</ele>
        <time>2024-11-25T18:21:56Z</time>
      </trkpt>
      <trkpt lat="44.41309" lon="1.36724">
        <ele>320</ele>
        <time>2024-11-25T18:22:11Z</time>
      </trkpt>
      <trkpt lat="44.41332" lon="1.3679">
        <ele>324</ele>
        <time>2024-11-25T18:22:53Z</time>
      </trkpt>
      <trkpt lat="44.41355" lon="1.36872">
        <ele>325</ele>
        <time>2024-11-25T18:23:44Z</time>
      </trkpt>
      <trkpt lat="44.41365" lon="1.36911">
        <ele>326</ele>
        <time>2024-11-25T18:24:07Z</time>
      </trkpt>
      <trkpt lat="44.41376" lon="1.36969">
        <ele>327</ele>
        <time>2024-11-25T18:24:42Z</time>
      </trkpt>
      <trkpt lat="44.41381" lon="1.37017">
        <ele>329</ele>
        <time>2024-11-25T18:25:10Z</time>
      </trkpt>
      <trkpt lat="44.41385" lon="1.3706">
        <ele>331</ele>
        <time>2024-11-25T18:25:34Z</time>
      </trkpt>
      <trkpt lat="44.41397" lon="1.37197">
        <ele>340</ele>
        <time>2024-11-25T18:26:53Z</time>
      </trkpt>
      <trkpt lat="44.41399" lon="1.37214">
        <ele>341</ele>
        <time>2024-11-25T18:27:03Z</time>
      </trkpt>
      <trkpt lat="44.41416" lon="1.37207">
        <ele>340</ele>
        <time>2024-11-25T18:27:17Z</time>
      </trkpt>
      <trkpt lat="44.41448" lon="1.37191">
        <ele>340</ele>
        <time>2024-11-25T18:27:45Z</time>
      </trkpt>
      <trkpt lat="44.41482" lon="1.37171">
        <ele>341</ele>
        <time>2024-11-25T18:28:14Z</time>
      </trkpt>
      <trkpt lat="44.41488" lon="1.37167">
        <ele>341</ele>
        <time>2024-11-25T18:28:19Z</time>
      </trkpt>
      <trkpt lat="44.41498" lon="1.37159">
        <ele>340</ele>
        <time>2024-11-25T18:28:29Z</time>
      </trkpt>
      <trkpt lat="44.41502" lon="1.37148">
        <ele>340</ele>
        <time>2024-11-25T18:28:36Z</time>
      </trkpt>
    </trkseg>
  </trk>
</gpx>